Time;durP1;ratioP1;P1;durP2;ratioP2;P2;SDS_P1;SDS_P2;PMS_P1;PMS_P2;Temp;Humidity;BMP_temperature;BMP_pressure;BME280_temperature;BME280_humidity;BME280_pressure;Samples;Min_cycle;Max_cycle;Signal;HPM_P1;HPM_P2
2021/06/29 00:01:58;;;;;;;6.85;3.70;;;;;;;21.97;53.89;101719.16;5062906;28;20029;-67
2021/06/29 00:04:24;;;;;;;6.47;3.70;;;;;;;21.98;54.06;101712.78;5061154;28;20040;-67
2021/06/29 00:06:50;;;;;;;5.93;3.80;;;;;;;21.98;53.58;101720.78;5082506;28;20475;-68
2021/06/29 00:09:15;;;;;;;5.40;3.13;;;;;;;21.98;54.03;101722.63;5086868;28;20119;-68
2021/06/29 00:11:42;;;;;;;6.13;3.45;;;;;;;21.99;53.83;101719.78;5083621;28;20027;-67
2021/06/29 00:14:08;;;;;;;5.95;3.40;;;;;;;21.99;53.59;101717.09;5085293;28;20060;-67
2021/06/29 00:16:34;;;;;;;6.45;3.83;;;;;;;21.98;53.80;101715.44;5083152;28;20071;-67
2021/06/29 00:18:59;;;;;;;5.88;3.60;;;;;;;22.00;53.76;101721.44;5071945;28;20472;-67
2021/06/29 00:21:25;;;;;;;8.05;3.33;;;;;;;21.99;53.92;101714.44;5113571;27;20111;-67
2021/06/29 00:23:50;;;;;;;5.50;3.53;;;;;;;22.00;53.76;101710.75;5082867;28;20127;-68
2021/06/29 00:26:16;;;;;;;6.45;3.65;;;;;;;22.00;53.68;101715.25;5086126;28;20031;-67
2021/06/29 00:28:42;;;;;;;6.35;3.80;;;;;;;22.00;53.69;101708.06;5081298;28;20503;-69
2021/06/29 00:31:07;;;;;;;5.40;3.55;;;;;;;22.00;53.73;101716.09;5082181;28;20150;-68
2021/06/29 00:33:33;;;;;;;6.45;3.40;;;;;;;22.01;53.76;101716.91;5083425;28;20037;-68
2021/06/29 00:35:59;;;;;;;4.85;2.95;;;;;;;22.01;54.01;101716.91;5083888;28;20040;-67
2021/06/29 00:38:24;;;;;;;4.22;3.38;;;;;;;22.02;53.81;101714.03;5082136;28;20032;-68
2021/06/29 00:40:51;;;;;;;5.80;3.42;;;;;;;22.01;53.89;101707.03;5084346;28;20684;-67
2021/06/29 00:43:16;;;;;;;6.45;3.80;;;;;;;22.02;53.62;101718.56;5084924;28;20048;-68
2021/06/29 00:45:42;;;;;;;5.43;3.17;;;;;;;22.01;53.76;101715.06;5082590;28;20417;-68
2021/06/29 00:48:08;;;;;;;5.75;3.35;;;;;;;22.01;53.99;101712.38;5080159;28;20085;-68
2021/06/29 00:50:33;;;;;;;5.35;3.40;;;;;;;22.01;53.63;101717.72;5080989;28;20203;-68
2021/06/29 00:52:59;;;;;;;5.45;3.25;;;;;;;22.04;53.88;101721.88;5085020;28;20139;-67
2021/06/29 00:55:24;;;;;;;6.50;3.47;;;;;;;22.02;53.73;101710.53;5080468;28;20115;-66
2021/06/29 00:57:51;;;;;;;6.07;3.13;;;;;;;22.02;53.67;101714.03;5078168;28;20066;-66
2021/06/29 01:00:18;;;;;;;4.75;3.17;;;;;;;22.02;53.97;101714.03;5069041;28;20033;-65
2021/06/29 01:02:43;;;;;;;4.20;3.08;;;;;;;22.02;53.67;101722.06;5067614;28;20128;-67
2021/06/29 01:05:11;;;;;;;5.43;3.38;;;;;;;22.01;54.04;101720.41;5068487;28;20107;-67
2021/06/29 01:07:37;;;;;;;5.55;3.08;;;;;;;22.02;53.66;101715.88;5085546;28;20557;-67
2021/06/29 01:10:07;;;;;;;5.28;3.40;;;;;;;22.01;53.88;101711.56;5078604;28;20180;-67
2021/06/29 01:12:34;;;;;;;5.95;3.03;;;;;;;22.01;53.77;101709.72;5085860;28;20028;-67
2021/06/29 01:14:59;;;;;;;5.53;3.28;;;;;;;22.01;53.43;101709.72;5080681;28;20044;-67
2021/06/29 01:17:25;;;;;;;6.40;3.28;;;;;;;22.01;53.49;101708.91;5086198;28;20571;-67
2021/06/29 01:19:51;;;;;;;5.80;3.30;;;;;;;22.01;53.47;101707.03;5084003;28;20040;-68
2021/06/29 01:22:19;;;;;;;5.07;3.38;;;;;;;22.01;53.13;101706.22;5084427;28;20031;-68
2021/06/29 01:24:50;;;;;;;5.10;3.25;;;;;;;22.01;53.12;101706.22;5082339;28;20036;-68
2021/06/29 01:32:22;;;;;;;4.20;3.30;;;;;;;22.00;52.94;101699.22;5082567;28;20040;-68
2021/06/29 01:34:48;;;;;;;5.03;3.10;;;;;;;22.00;52.71;101702.72;5081107;28;20036;-67
2021/06/29 01:37:14;;;;;;;5.18;3.58;;;;;;;22.00;52.64;101699.22;5082217;28;20387;-67
2021/06/29 01:39:58;;;;;;;6.20;3.58;;;;;;;21.97;52.64;101708.47;5084461;28;20056;-69
2021/06/29 01:42:24;;;;;;;5.97;3.53;;;;;;;22.00;52.88;101701.91;5081140;28;20128;-67
2021/06/29 01:44:50;;;;;;;5.75;3.38;;;;;;;21.99;52.99;101703.75;5079309;28;20527;-68
2021/06/29 01:47:24;;;;;;;5.72;3.60;;;;;;;22.00;52.95;101694.72;5081260;28;20028;-68
2021/06/29 01:49:50;;;;;;;5.28;3.60;;;;;;;21.99;52.76;101693.06;5085597;28;20032;-67
2021/06/29 01:52:15;;;;;;;5.65;3.83;;;;;;;21.99;52.37;101698.41;5079962;28;20037;-68
2021/06/29 01:54:42;;;;;;;5.30;3.63;;;;;;;21.98;52.67;101702.09;5077990;28;20107;-68
2021/06/29 01:57:13;;;;;;;5.65;4.00;;;;;;;21.97;52.24;101700.44;5081381;28;20024;-67
2021/06/29 01:59:44;;;;;;;5.13;3.45;;;;;;;21.99;52.11;101700.25;5070851;28;20036;-68
2021/06/29 02:02:09;;;;;;;6.03;3.80;;;;;;;21.98;52.11;101707.44;5068694;28;20081;-67
2021/06/29 02:04:34;;;;;;;4.30;3.53;;;;;;;21.98;51.81;101703.94;5065990;28;20048;-68
2021/06/29 02:07:00;;;;;;;6.57;4.18;;;;;;;21.97;52.27;101711.13;5112944;28;20065;-68
2021/06/29 02:09:25;;;;;;;5.43;4.10;;;;;;;21.98;51.98;101703.94;5108451;28;20044;-68
2021/06/29 02:11:51;;;;;;;6.60;3.92;;;;;;;21.97;51.98;101705.78;5081918;28;20039;-66
2021/06/29 02:14:16;;;;;;;6.00;4.07;;;;;;;21.97;51.81;101703.13;5085337;28;20043;-65
2021/06/29 02:16:42;;;;;;;5.75;4.18;;;;;;;21.96;51.91;101709.47;5081639;28;20036;-66
2021/06/29 02:19:09;;;;;;;4.90;3.85;;;;;;;21.96;51.59;101714.81;5076687;28;20153;-65
2021/06/29 02:21:35;;;;;;;6.28;3.78;;;;;;;21.97;51.66;101715.66;5078676;28;20121;-66
2021/06/29 02:24:00;;;;;;;6.38;3.97;;;;;;;21.95;51.14;101718.50;5083042;28;20085;-65
2021/06/29 02:26:26;;;;;;;8.88;4.32;;;;;;;21.94;51.52;101711.50;5084081;28;20433;-65
2021/06/29 02:28:51;;;;;;;5.57;3.95;;;;;;;21.96;51.48;101719.34;5076845;28;20040;-65
2021/06/29 02:31:17;;;;;;;5.97;3.70;;;;;;;21.96;51.03;101716.66;5060743;28;20384;-65
2021/06/29 02:33:42;;;;;;;7.55;4.30;;;;;;;21.95;51.31;101709.66;5048912;28;20044;-65
2021/06/29 02:36:07;;;;;;;7.28;4.45;;;;;;;21.95;51.30;101717.69;5087594;28;20079;-65
2021/06/29 02:38:33;;;;;;;7.63;4.50;;;;;;;21.94;51.13;101716.84;5052938;28;20487;-65
2021/06/29 02:40:58;;;;;;;6.28;4.10;;;;;;;21.95;50.67;101715.00;5058112;28;20040;-65
2021/06/29 02:43:24;;;;;;;6.22;4.13;;;;;;;21.94;50.75;101708.84;5070587;28;20037;-65
2021/06/29 02:45:49;;;;;;;6.95;4.50;;;;;;;21.94;50.63;101708.84;5070165;28;20040;-65
2021/06/29 02:48:15;;;;;;;7.57;3.95;;;;;;;21.93;50.94;101712.50;5064918;28;20036;-66
2021/06/29 02:50:40;;;;;;;7.75;4.47;;;;;;;21.94;50.93;101713.34;5071399;28;20135;-66
2021/06/29 02:53:06;;;;;;;7.30;4.20;;;;;;;21.93;50.63;101707.16;5071205;28;20052;-65
2021/06/29 02:55:32;;;;;;;6.95;3.80;;;;;;;21.94;50.93;101714.19;5069906;28;20529;-68
2021/06/29 02:57:57;;;;;;;5.40;4.32;;;;;;;21.93;50.50;101715.16;5071125;28;20141;-65
2021/06/29 03:00:23;;;;;;;5.63;4.05;;;;;;;21.94;50.69;101722.19;5070989;28;20468;-65
2021/06/29 03:02:49;;;;;;;7.32;4.28;;;;;;;21.93;50.84;101717.03;5071074;28;20039;-65
2021/06/29 03:05:15;;;;;;;6.53;3.95;;;;;;;21.94;50.85;101718.69;5061869;28;20044;-65
2021/06/29 03:07:41;;;;;;;6.13;4.60;;;;;;;21.94;50.62;101721.38;5066322;28;20550;-67
2021/06/29 03:10:07;;;;;;;5.28;3.80;;;;;;;21.93;50.71;101725.84;5069192;28;20570;-65
2021/06/29 03:12:34;;;;;;;5.35;4.03;;;;;;;21.94;50.18;101722.19;5086787;28;20056;-65
2021/06/29 03:15:01;;;;;;;5.45;4.00;;;;;;;21.93;50.64;101714.34;5070803;28;20029;-65
2021/06/29 03:17:28;;;;;;;7.68;3.88;;;;;;;21.93;50.21;101709.81;5071686;28;20039;-66
2021/06/29 03:19:53;;;;;;;5.93;4.50;;;;;;;21.93;50.12;101714.34;5070444;28;20040;-65
2021/06/29 03:22:19;;;;;;;7.20;3.95;;;;;;;21.92;50.27;101712.69;5071330;28;20047;-65
2021/06/29 03:24:45;;;;;;;6.78;4.00;;;;;;;21.92;50.17;101716.19;5069304;28;20559;-65
2021/06/29 03:27:11;;;;;;;6.22;4.28;;;;;;;21.91;50.00;101719.88;5071325;28;20040;-65
2021/06/29 03:29:37;;;;;;;6.85;4.40;;;;;;;21.91;49.96;101727.06;5070192;28;20475;-68
2021/06/29 03:32:03;;;;;;;5.47;4.10;;;;;;;21.91;49.64;101725.22;5086206;28;20498;-65
2021/06/29 03:34:29;;;;;;;6.55;4.55;;;;;;;21.91;49.52;101721.72;5059186;28;20472;-65
2021/06/29 03:36:54;;;;;;;7.03;4.30;;;;;;;21.90;49.83;101710.22;5068430;28;20098;-65
2021/06/29 03:39:20;;;;;;;6.43;4.07;;;;;;;21.90;49.75;101710.22;5061271;28;20153;-65
2021/06/29 03:41:46;;;;;;;6.78;4.18;;;;;;;21.89;49.48;101721.91;5065167;28;20043;-66
2021/06/29 03:44:11;;;;;;;6.38;4.28;;;;;;;21.89;49.68;101716.56;5069635;28;20173;-65
2021/06/29 03:46:37;;;;;;;8.60;4.93;;;;;;;21.89;49.61;101703.22;5057488;28;20045;-65
2021/06/29 03:49:03;;;;;;;6.93;4.35;;;;;;;21.89;49.13;101715.75;5068951;28;20044;-66
2021/06/29 03:51:29;;;;;;;6.78;4.13;;;;;;;21.88;49.41;101712.25;5070563;28;20059;-65
2021/06/29 03:53:54;;;;;;;5.75;3.90;;;;;;;21.88;49.27;101711.44;5066104;28;20075;-67
2021/06/29 03:56:23;;;;;;;6.78;3.85;;;;;;;21.88;49.51;101714.94;5065071;28;20044;-67
2021/06/29 03:58:57;;;;;;;8.15;4.18;;;;;;;21.87;49.51;101707.94;5069679;28;20044;-67
2021/06/29 04:01:22;;;;;;;4.97;4.05;;;;;;;21.88;49.30;101706.09;5070659;28;20037;-68
2021/06/29 04:03:51;;;;;;;6.00;4.15;;;;;;;21.88;49.41;101714.94;5069218;28;20411;-67
2021/06/29 04:06:16;;;;;;;5.78;4.30;;;;;;;21.88;48.99;101712.25;5057264;28;20103;-67
2021/06/29 04:08:42;;;;;;;8.60;5.10;;;;;;;21.87;49.28;101715.94;5069578;28;20181;-67
2021/06/29 04:11:07;;;;;;;6.75;4.45;;;;;;;21.87;49.14;101715.94;5069463;28;20029;-69
2021/06/29 04:13:33;;;;;;;7.57;4.20;;;;;;;21.87;48.95;101710.59;5068776;28;20383;-67
2021/06/29 04:15:58;;;;;;;6.63;4.50;;;;;;;21.87;49.25;101715.13;5085616;28;20640;-67
2021/06/29 04:18:24;;;;;;;8.07;4.20;;;;;;;21.87;48.90;101710.59;5068255;28;20043;-67
2021/06/29 04:20:49;;;;;;;6.10;4.13;;;;;;;21.87;49.06;101704.44;5068653;28;20463;-67
2021/06/29 04:23:15;;;;;;;7.65;4.50;;;;;;;21.87;48.83;101707.09;5069475;28;20051;-68
2021/06/29 04:25:40;;;;;;;7.25;4.40;;;;;;;21.86;48.79;101703.59;5069286;28;20033;-67
2021/06/29 04:28:06;;;;;;;5.57;4.35;;;;;;;21.86;49.06;101700.09;5069605;28;20032;-67
2021/06/29 04:30:31;;;;;;;7.47;4.35;;;;;;;21.86;48.87;101700.09;5069157;28;20036;-67
2021/06/29 04:32:57;;;;;;;8.50;4.32;;;;;;;21.85;49.06;101695.78;5069703;28;20033;-67
2021/06/29 04:35:22;;;;;;;6.13;3.80;;;;;;;21.86;48.71;101700.09;5068146;28;20032;-68
2021/06/29 04:37:48;;;;;;;6.50;4.53;;;;;;;21.86;49.08;101702.78;5069269;28;20049;-67
2021/06/29 04:40:14;;;;;;;7.13;3.75;;;;;;;21.87;48.75;101709.78;5068603;28;20189;-67
2021/06/29 04:42:40;;;;;;;5.68;3.70;;;;;;;21.85;48.89;101701.97;5069082;28;20036;-67
2021/06/29 04:45:06;;;;;;;7.07;4.55;;;;;;;21.85;48.98;101709.97;5068263;28;20039;-68
2021/06/29 04:47:38;;;;;;;8.10;4.03;;;;;;;21.86;49.01;101710.78;5062149;28;20515;-67
2021/06/29 04:50:05;;;;;;;7.25;4.20;;;;;;;21.86;48.78;101710.78;5064084;28;20116;-67
2021/06/29 04:52:32;;;;;;;6.88;3.85;;;;;;;21.85;48.54;101709.97;5068289;28;20049;-68
2021/06/29 04:54:57;;;;;;;5.72;3.90;;;;;;;21.85;48.99;101709.97;5083521;28;20072;-67
2021/06/29 04:57:23;;;;;;;5.15;3.80;;;;;;;21.85;48.79;101712.63;5068231;28;20448;-67
2021/06/29 04:59:48;;;;;;;7.45;3.70;;;;;;;21.85;48.46;101711.81;5068595;28;20529;-67
2021/06/29 05:02:14;;;;;;;5.55;4.10;;;;;;;21.84;48.44;101711.00;5067766;28;20043;-67
2021/06/29 05:04:39;;;;;;;8.00;4.40;;;;;;;21.84;48.70;101711.00;5065084;28;20032;-67
2021/06/29 05:07:05;;;;;;;7.80;4.00;;;;;;;21.83;48.60;101712.00;5062661;28;20480;-67
2021/06/29 05:09:30;;;;;;;7.38;4.10;;;;;;;21.82;48.41;101703.16;5068254;28;20032;-71
2021/06/29 05:11:55;;;;;;;7.78;4.30;;;;;;;21.82;48.66;101703.16;5068710;28;20115;-68
2021/06/29 05:14:21;;;;;;;6.78;3.80;;;;;;;21.84;48.46;101702.97;5068673;28;20483;-67
2021/06/29 05:16:46;;;;;;;7.47;4.20;;;;;;;21.83;48.62;101704.81;5067159;28;20060;-67
2021/06/29 05:19:12;;;;;;;6.97;3.85;;;;;;;21.82;48.37;101700.50;5067275;28;20048;-67
2021/06/29 05:21:37;;;;;;;6.18;4.15;;;;;;;21.83;48.35;101704.81;5049716;28;20417;-67
2021/06/29 05:24:03;;;;;;;8.10;3.95;;;;;;;21.81;48.28;101706.84;5067390;28;20045;-67
2021/06/29 05:26:29;;;;;;;6.45;3.88;;;;;;;21.82;48.29;101705.84;5066563;28;20429;-67
2021/06/29 05:28:54;;;;;;;8.02;3.90;;;;;;;21.82;48.11;101713.03;5068464;28;20035;-67
2021/06/29 05:31:19;;;;;;;6.93;4.03;;;;;;;21.81;48.38;101706.03;5050515;28;20105;-67
2021/06/29 05:33:45;;;;;;;6.63;4.03;;;;;;;21.81;48.27;101706.84;5068523;28;20035;-67
2021/06/29 05:36:10;;;;;;;7.03;3.35;;;;;;;21.81;47.99;101700.69;5067110;28;20047;-67
2021/06/29 05:38:36;;;;;;;7.18;3.85;;;;;;;21.80;47.96;101697.19;5065671;28;20032;-68
2021/06/29 05:41:02;;;;;;;5.82;3.47;;;;;;;21.81;48.55;101704.19;5066786;28;20033;-67
2021/06/29 05:43:27;;;;;;;7.47;3.58;;;;;;;21.81;48.11;101712.19;5066490;28;20059;-67
2021/06/29 05:45:53;;;;;;;5.93;3.72;;;;;;;21.81;48.40;101711.38;5061457;28;20543;-67
2021/06/29 05:48:19;;;;;;;6.00;3.58;;;;;;;21.81;48.45;101709.53;5094073;28;20037;-65
2021/06/29 05:50:44;;;;;;;6.95;3.75;;;;;;;21.80;48.18;101699.88;5067680;28;20502;-65
2021/06/29 05:53:11;;;;;;;5.13;3.47;;;;;;;21.80;48.18;101697.19;5066353;28;20057;-65
2021/06/29 05:55:36;;;;;;;5.25;3.58;;;;;;;21.80;48.23;101699.88;5067488;28;20032;-65
2021/06/29 05:58:02;;;;;;;6.95;3.92;;;;;;;21.81;48.06;101706.03;5068837;28;20384;-65
2021/06/29 06:00:27;;;;;;;6.20;4.18;;;;;;;21.80;48.01;101707.06;5067178;28;20044;-65
2021/06/29 06:02:53;;;;;;;7.30;3.45;;;;;;;21.80;47.88;101710.53;5068100;28;20032;-65
2021/06/29 06:05:18;;;;;;;8.50;3.97;;;;;;;21.81;48.04;101711.38;5054333;28;20059;-65
2021/06/29 06:07:45;;;;;;;7.00;3.47;;;;;;;21.78;47.80;101712.59;5082144;28;20668;-65
2021/06/29 06:10:11;;;;;;;8.38;4.13;;;;;;;21.79;47.84;101710.75;5070271;28;20499;-67
2021/06/29 06:12:36;;;;;;;7.20;3.65;;;;;;;21.78;48.00;101701.91;5071572;28;20067;-65
2021/06/29 06:15:03;;;;;;;6.90;3.45;;;;;;;21.78;47.66;101707.25;5072472;28;20056;-66
2021/06/29 06:17:30;;;;;;;8.20;4.10;;;;;;;21.78;47.67;101711.75;5072275;28;20503;-65
2021/06/29 06:19:55;;;;;;;6.93;3.92;;;;;;;21.77;47.78;101710.91;5086938;28;20067;-66
2021/06/29 06:22:21;;;;;;;8.63;4.00;;;;;;;21.77;47.61;101721.59;5062192;28;20416;-65
2021/06/29 06:24:47;;;;;;;5.78;3.78;;;;;;;21.77;47.81;101718.09;5070085;28;20472;-65
2021/06/29 06:27:14;;;;;;;8.18;3.90;;;;;;;21.76;47.68;101721.78;5072429;28;20170;-65
2021/06/29 06:29:40;;;;;;;7.47;3.60;;;;;;;21.75;47.61;101718.28;5071880;28;20028;-65
2021/06/29 06:32:06;;;;;;;8.10;3.97;;;;;;;21.76;47.83;101716.44;5071711;28;20559;-66
2021/06/29 06:34:32;;;;;;;10.15;3.97;;;;;;;21.75;47.63;101728.13;5072271;28;20484;-64
2021/06/29 06:36:57;;;;;;;7.35;3.47;;;;;;;21.76;48.14;101727.13;5071282;28;20036;-67
2021/06/29 06:39:23;;;;;;;7.20;3.80;;;;;;;21.76;47.83;101730.63;5062512;28;20035;-68
2021/06/29 06:41:48;;;;;;;9.02;4.40;;;;;;;21.74;48.17;101727.31;5081618;28;20037;-68
2021/06/29 06:44:14;;;;;;;8.48;4.05;;;;;;;21.74;48.08;101729.16;5087396;28;20071;-68
2021/06/29 06:46:39;;;;;;;7.80;4.10;;;;;;;21.73;48.48;101725.66;5057285;28;20385;-68
2021/06/29 06:49:05;;;;;;;6.85;3.60;;;;;;;21.75;48.60;101734.31;5070562;28;20455;-68
2021/06/29 06:51:31;;;;;;;8.30;3.75;;;;;;;21.75;48.79;101728.13;5078830;28;20498;-67
2021/06/29 06:53:57;;;;;;;8.43;4.20;;;;;;;21.75;48.40;101723.63;5072447;28;20131;-68
2021/06/29 06:56:22;;;;;;;7.80;3.70;;;;;;;21.76;48.80;101729.78;5073602;28;20047;-64
2021/06/29 06:58:48;;;;;;;7.18;3.95;;;;;;;21.74;48.85;101737.16;5070850;28;20051;-65
2021/06/29 07:01:15;;;;;;;8.98;3.80;;;;;;;21.76;49.24;101745.81;5070288;28;20078;-64
2021/06/29 07:03:40;;;;;;;7.32;3.83;;;;;;;21.76;49.16;101748.47;5070575;28;20031;-67
2021/06/29 07:06:07;;;;;;;6.75;3.78;;;;;;;21.77;49.38;101742.13;5063563;28;20028;-66
2021/06/29 07:08:33;;;;;;;8.75;3.67;;;;;;;21.77;49.84;101740.28;5071266;28;20044;-65
2021/06/29 07:11:00;;;;;;;5.95;3.53;;;;;;;21.78;50.10;101743.81;5070740;28;20164;-64
2021/06/29 07:13:26;;;;;;;10.90;4.13;;;;;;;21.79;50.28;101750.81;5070825;28;20777;-66
2021/06/29 07:15:51;;;;;;;10.50;4.85;;;;;;;21.79;50.33;101748.97;5069108;28;20064;-65
2021/06/29 07:18:18;;;;;;;10.05;3.90;;;;;;;21.82;50.69;101761.09;5070324;28;20033;-66
2021/06/29 07:20:44;;;;;;;10.77;4.45;;;;;;;21.82;50.47;101753.91;5069262;28;20078;-71
2021/06/29 07:23:11;;;;;;;8.30;3.72;;;;;;;21.84;50.09;101756.41;5070252;28;20044;-65
2021/06/29 07:25:37;;;;;;;8.60;3.88;;;;;;;21.83;50.00;101752.06;5070145;28;20055;-65
2021/06/29 07:28:02;;;;;;;11.18;4.13;;;;;;;21.83;49.92;101744.06;5070962;28;20753;-68
2021/06/29 07:30:28;;;;;;;8.32;3.55;;;;;;;21.83;49.92;101746.72;5070635;28;20036;-65
2021/06/29 07:32:55;;;;;;;9.57;4.50;;;;;;;21.82;49.58;101747.75;5056528;28;20048;-65
2021/06/29 07:35:21;;;;;;;7.10;3.90;;;;;;;21.82;49.73;101751.25;5069182;28;20472;-69
2021/06/29 07:37:48;;;;;;;8.10;3.83;;;;;;;21.82;49.56;101747.75;5070781;28;20067;-64
2021/06/29 07:40:13;;;;;;;14.25;4.55;;;;;;;21.82;49.66;101739.72;5055650;28;20039;-66
2021/06/29 07:42:39;;;;;;;9.77;4.38;;;;;;;21.81;49.40;101740.75;5069601;28;20025;-64
2021/06/29 07:45:07;;;;;;;13.23;4.63;;;;;;;21.77;49.20;101760.81;5068592;28;20037;-66
2021/06/29 07:47:32;;;;;;;15.45;5.00;;;;;;;21.74;49.32;101762.03;5070484;28;20036;-65
2021/06/29 07:49:58;;;;;;;14.82;5.03;;;;;;;21.73;49.09;101756.88;5070201;28;20078;-64
2021/06/29 07:52:23;;;;;;;12.20;5.43;;;;;;;21.72;49.31;101757.91;5069329;28;20107;-65
2021/06/29 07:54:49;;;;;;;19.08;6.30;;;;;;;21.72;49.26;101769.41;5084538;28;20055;-65
2021/06/29 07:57:15;;;;;;;13.18;5.40;;;;;;;21.72;49.23;101757.91;5070148;28;20667;-66
2021/06/29 07:59:40;;;;;;;15.98;5.93;;;;;;;21.72;49.36;101757.91;5069778;28;20040;-65
2021/06/29 08:02:06;;;;;;;13.00;4.75;;;;;;;21.71;49.09;101758.91;5069337;28;20101;-66
2021/06/29 08:04:32;;;;;;;17.15;5.88;;;;;;;21.71;49.00;101764.25;5065469;28;20559;-66
2021/06/29 08:06:57;;;;;;;14.82;5.07;;;;;;;21.70;49.13;101767.94;5061767;28;20040;-65
2021/06/29 08:09:23;;;;;;;12.05;5.22;;;;;;;21.68;48.63;101765.47;5069172;28;20046;-67
2021/06/29 08:11:49;;;;;;;10.15;5.38;;;;;;;21.68;48.48;101767.31;5067901;28;20545;-65
2021/06/29 08:14:14;;;;;;;10.85;5.30;;;;;;;21.65;48.77;101765.84;5068630;28;20032;-68
2021/06/29 08:16:43;;;;;;;11.18;4.85;;;;;;;21.62;48.88;101763.56;5084008;28;20499;-68
2021/06/29 08:19:09;;;;;;;12.77;4.60;;;;;;;21.61;48.58;101766.38;5066199;28;20037;-68
2021/06/29 08:21:34;;;;;;;14.00;5.18;;;;;;;21.58;48.70;101774.78;5067443;28;20078;-68
2021/06/29 08:23:59;;;;;;;13.85;5.32;;;;;;;21.55;48.80;101773.31;5067652;28;20043;-66
2021/06/29 08:26:25;;;;;;;12.60;5.07;;;;;;;21.53;48.91;101775.34;5068703;28;20072;-66
2021/06/29 08:28:50;;;;;;;10.05;5.13;;;;;;;21.49;48.76;101782.06;5084339;28;20060;-66
2021/06/29 08:31:20;;;;;;;18.05;5.05;;;;;;;21.48;48.42;101788.44;5068463;28;20208;-65
2021/06/29 08:33:46;;;;;;;9.13;4.70;;;;;;;21.47;48.65;101784.09;5068144;28;20036;-68
2021/06/29 08:36:11;;;;;;;10.05;4.78;;;;;;;21.46;48.48;101785.09;5069189;28;20040;-65
2021/06/29 08:38:37;;;;;;;11.43;4.13;;;;;;;21.46;48.94;101793.09;5066180;28;20388;-65
2021/06/29 08:41:02;;;;;;;11.73;4.57;;;;;;;21.45;48.58;101797.59;5058991;28;20028;-66
2021/06/29 08:43:28;;;;;;;8.88;4.53;;;;;;;21.46;48.74;101793.09;5069498;28;20039;-67
2021/06/29 08:45:55;;;;;;;11.05;4.50;;;;;;;21.45;48.78;101788.78;5069004;28;20121;-65
2021/06/29 08:48:21;;;;;;;15.02;5.13;;;;;;;21.43;48.84;101790.81;5070056;28;20047;-66
2021/06/29 08:50:46;;;;;;;8.40;4.35;;;;;;;21.41;48.43;101796.31;5068771;28;20036;-65
2021/06/29 08:53:13;;;;;;;8.60;4.22;;;;;;;21.40;48.57;101792.00;5067363;28;20201;-65
2021/06/29 08:55:48;;;;;;;11.20;4.72;;;;;;;21.39;48.69;101798.34;5069068;28;20031;-66
2021/06/29 08:58:22;;;;;;;7.22;4.28;;;;;;;21.37;48.61;101794.22;5085129;28;20032;-66
2021/06/29 09:00:52;;;;;;;11.73;4.78;;;;;;;21.37;48.35;101795.06;5068469;28;20456;-66
2021/06/29 09:03:18;;;;;;;11.23;4.65;;;;;;;21.37;48.65;101792.38;5059473;28;20037;-65
2021/06/29 09:05:45;;;;;;;10.32;4.78;;;;;;;21.35;48.42;101786.41;5055801;28;20055;-65
2021/06/29 09:08:17;;;;;;;7.13;4.32;;;;;;;21.36;48.43;101795.25;5068665;28;20040;-65
2021/06/29 09:11:22;;;;;;;9.65;3.88;;;;;;;21.35;48.55;101797.06;5068988;28;20042;-65
2021/06/29 09:14:10;;;;;;;9.88;4.25;;;;;;;21.30;48.47;101796.78;5009743;28;20038;-66
2021/06/29 09:16:36;;;;;;;8.35;4.05;;;;;;;21.34;48.33;101794.59;5024118;28;20033;-65
2021/06/29 09:19:01;;;;;;;9.60;4.30;;;;;;;21.33;48.25;101798.28;5049315;28;20052;-65
2021/06/29 09:21:27;;;;;;;10.00;4.15;;;;;;;21.32;48.18;101796.63;5068972;28;20032;-65
2021/06/29 09:23:53;;;;;;;9.23;4.30;;;;;;;21.31;48.61;101806.47;5068475;28;20387;-65
2021/06/29 09:26:23;;;;;;;6.45;4.00;;;;;;;21.32;48.57;101797.44;5068997;28;20060;-68
2021/06/29 09:28:54;;;;;;;9.00;4.40;;;;;;;21.30;48.38;101799.44;5059275;28;20040;-66
2021/06/29 09:31:23;;;;;;;8.88;4.40;;;;;;;21.31;48.35;101797.63;5069106;28;20028;-65
2021/06/29 09:34:00;;;;;;;8.75;4.40;;;;;;;21.29;48.62;101808.47;5068507;28;20097;-65
2021/06/29 09:36:31;;;;;;;7.88;4.35;;;;;;;21.31;48.16;101794.97;5068528;28;20024;-65
2021/06/29 09:38:59;;;;;;;7.68;3.83;;;;;;;21.30;48.11;101794.13;5062679;28;20112;-66
2021/06/29 09:41:29;;;;;;;10.02;3.95;;;;;;;21.30;48.55;101807.47;5060565;28;20028;-65
2021/06/29 09:44:03;;;;;;;6.70;3.85;;;;;;;21.30;48.57;101803.97;5068019;28;20491;-66
2021/06/29 09:46:28;;;;;;;10.52;4.03;;;;;;;21.30;48.29;101809.31;5067673;28;20055;-65
2021/06/29 09:48:57;;;;;;;8.13;4.07;;;;;;;21.31;48.41;101801.13;5064878;28;20480;-66
2021/06/29 09:51:29;;;;;;;8.07;4.05;;;;;;;21.30;48.66;101802.13;5059833;28;20071;-67
2021/06/29 09:54:07;;;;;;;8.65;4.13;;;;;;;21.31;48.47;101801.13;5064654;28;20515;-67
2021/06/29 09:56:42;;;;;;;9.02;4.03;;;;;;;21.33;48.45;101801.78;5039397;28;20057;-66
2021/06/29 09:59:16;;;;;;;8.30;3.50;;;;;;;21.32;48.23;101797.44;5048436;28;20440;-67
2021/06/29 10:01:42;;;;;;;9.07;3.55;;;;;;;21.36;48.13;101792.56;5049040;28;20056;-66
2021/06/29 10:04:08;;;;;;;8.65;3.88;;;;;;;21.36;48.23;101798.72;5047690;28;20387;-67
2021/06/29 10:06:36;;;;;;;7.95;4.05;;;;;;;21.36;48.39;101800.56;5038602;28;20459;-66
2021/06/29 10:09:04;;;;;;;8.90;3.83;;;;;;;21.37;48.42;101797.72;5047728;28;20499;-66
2021/06/29 10:11:32;;;;;;;8.60;3.92;;;;;;;21.40;48.54;101797.34;5047880;28;20029;-66
2021/06/29 10:14:05;;;;;;;6.45;3.85;;;;;;;21.39;48.08;101798.34;5048320;28;20036;-66
2021/06/29 10:16:34;;;;;;;8.63;3.88;;;;;;;21.43;48.05;101794.28;5048530;28;20645;-66
2021/06/29 10:19:14;;;;;;;10.55;4.00;;;;;;;21.45;48.02;101799.44;5046779;28;20041;-66
2021/06/29 10:21:48;;;;;;;6.95;3.70;;;;;;;21.42;48.09;101799.81;5037605;28;20029;-66
2021/06/29 10:24:20;;;;;;;8.18;3.85;;;;;;;21.44;48.45;101793.28;5047859;28;20037;-66
2021/06/29 10:26:47;;;;;;;8.95;3.63;;;;;;;21.47;48.45;101789.44;5038470;28;20033;-66
2021/06/29 10:29:16;;;;;;;5.25;3.25;;;;;;;21.49;48.32;101793.56;5048490;28;20098;-66
2021/06/29 10:31:47;;;;;;;9.10;3.58;;;;;;;21.51;48.34;101793.38;5041111;28;20275;-66
2021/06/29 10:34:14;;;;;;;10.15;3.65;;;;;;;21.52;48.10;101787.03;5047983;28;20025;-66
2021/06/29 10:36:51;;;;;;;6.43;3.50;;;;;;;21.51;47.89;101782.72;5048225;28;20034;-66
2021/06/29 10:39:19;;;;;;;8.13;3.63;;;;;;;21.52;47.81;101773.69;5038211;28;20030;-66
2021/06/29 10:41:48;;;;;;;7.93;3.38;;;;;;;21.55;48.15;101781.31;5042628;28;20036;-66
2021/06/29 10:44:16;;;;;;;6.53;3.08;;;;;;;21.56;47.84;101777.63;5047829;28;20032;-66
2021/06/29 10:46:47;;;;;;;5.80;3.10;;;;;;;21.58;48.04;101774.78;5043714;28;20061;-66
2021/06/29 10:49:39;;;;;;;6.55;3.30;;;;;;;21.57;48.00;101775.78;5034838;28;20120;-67
2021/06/29 10:52:22;;;;;;;5.15;3.42;;;;;;;21.59;48.13;101768.41;5046307;28;20448;-66
2021/06/29 10:54:56;;;;;;;6.80;3.13;;;;;;;21.60;48.03;101759.38;5047565;28;20084;-67
2021/06/29 10:57:46;;;;;;;6.05;3.35;;;;;;;21.61;48.10;101761.88;5033614;28;20049;-66
2021/06/29 11:00:21;;;;;;;6.20;3.22;;;;;;;21.61;48.05;101761.88;5044226;28;20476;-66
2021/06/29 11:03:06;;;;;;;5.28;3.50;;;;;;;21.61;47.89;101761.88;5052232;28;20033;-66
2021/06/29 11:05:36;;;;;;;7.07;3.60;;;;;;;21.65;47.70;101767.69;5041908;28;20029;-67
2021/06/29 11:08:23;;;;;;;7.25;3.40;;;;;;;21.61;48.02;101758.38;5050551;28;20512;-67
2021/06/29 11:10:52;;;;;;;8.95;3.30;;;;;;;21.65;48.00;101759.69;5051348;28;20033;-66
2021/06/29 11:13:20;;;;;;;6.90;3.63;;;;;;;21.65;47.88;101754.34;5051172;28;20037;-66
2021/06/29 11:15:52;;;;;;;6.05;3.92;;;;;;;21.64;47.88;101745.50;5050990;28;20172;-67
2021/06/29 11:18:36;;;;;;;7.05;3.60;;;;;;;21.62;48.21;101744.00;5049789;28;20058;-65
2021/06/29 11:21:05;;;;;;;6.63;3.40;;;;;;;21.65;48.09;101740.97;5050691;28;20124;-66
2021/06/29 11:23:32;;;;;;;7.72;3.58;;;;;;;21.66;47.95;101739.97;5051357;28;20044;-66
2021/06/29 11:26:13;;;;;;;7.25;3.80;;;;;;;21.68;48.31;101735.25;5050142;28;20033;-66
2021/06/29 11:28:50;;;;;;;7.65;3.35;;;;;;;21.65;47.88;101728.47;5046346;28;20075;-66
2021/06/29 11:31:23;;;;;;;7.80;3.53;;;;;;;21.68;48.02;101732.59;5047599;28;20115;-67